sensor_id;sensor_type;location;lat;lon;timestamp;P1;durP1;ratioP1;P2;durP2;ratioP2
48795;SDS011;34607;48.520;-1.330;2023-11-18T00:00:17;6.10;;;2.58;;
48795;SDS011;34607;48.520;-1.330;2023-11-18T00:02:44;4.47;;;2.35;;
48795;SDS011;34607;48.520;-1.330;2023-11-18T00:05:11;7.03;;;2.55;;
48795;SDS011;34607;48.520;-1.330;2023-11-18T00:07:39;5.22;;;2.25;;
48795;SDS011;34607;48.520;-1.330;2023-11-18T00:10:06;4.43;;;1.85;;
48795;SDS011;34607;48.520;-1.330;2023-11-18T00:12:35;7.32;;;2.40;;
48795;SDS011;34607;48.520;-1.330;2023-11-18T00:15:02;4.78;;;2.03;;
48795;SDS011;34607;48.520;-1.330;2023-11-18T00:17:31;5.25;;;2.38;;
48795;SDS011;34607;48.520;-1.330;2023-11-18T00:19:58;6.95;;;2.58;;
48795;SDS011;34607;48.520;-1.330;2023-11-18T00:22:25;6.95;;;2.00;;
48795;SDS011;34607;48.520;-1.330;2023-11-18T00:24:53;3.40;;;2.25;;
48795;SDS011;34607;48.520;-1.330;2023-11-18T00:27:20;5.50;;;2.50;;
48795;SDS011;34607;48.520;-1.330;2023-11-18T00:29:50;10.32;;;2.95;;
48795;SDS011;34607;48.520;-1.330;2023-11-18T00:32:18;6.05;;;2.60;;
48795;SDS011;34607;48.520;-1.330;2023-11-18T00:34:46;4.70;;;3.20;;
48795;SDS011;34607;48.520;-1.330;2023-11-18T00:37:13;4.63;;;2.90;;
48795;SDS011;34607;48.520;-1.330;2023-11-18T00:39:41;6.68;;;3.47;;
48795;SDS011;34607;48.520;-1.330;2023-11-18T00:42:08;4.25;;;2.70;;
48795;SDS011;34607;48.520;-1.330;2023-11-18T00:44:37;7.97;;;3.10;;
48795;SDS011;34607;48.520;-1.330;2023-11-18T00:47:04;4.63;;;3.08;;
48795;SDS011;34607;48.520;-1.330;2023-11-18T00:49:31;5.95;;;3.67;;
48795;SDS011;34607;48.520;-1.330;2023-11-18T00:52:01;5.50;;;3.28;;
48795;SDS011;34607;48.520;-1.330;2023-11-18T00:54:28;5.80;;;2.92;;
48795;SDS011;34607;48.520;-1.330;2023-11-18T00:56:56;7.15;;;3.03;;
48795;SDS011;34607;48.520;-1.330;2023-11-18T00:59:23;10.98;;;3.20;;
48795;SDS011;34607;48.520;-1.330;2023-11-18T01:01:50;6.97;;;3.30;;
48795;SDS011;34607;48.520;-1.330;2023-11-18T01:04:16;5.72;;;2.97;;
48795;SDS011;34607;48.520;-1.330;2023-11-18T01:06:45;7.07;;;3.28;;
48795;SDS011;34607;48.520;-1.330;2023-11-18T01:09:14;6.93;;;2.70;;
48795;SDS011;34607;48.520;-1.330;2023-11-18T01:11:41;7.47;;;3.08;;
48795;SDS011;34607;48.520;-1.330;2023-11-18T01:14:08;5.47;;;2.67;;
48795;SDS011;34607;48.520;-1.330;2023-11-18T01:16:35;4.45;;;2.88;;
48795;SDS011;34607;48.520;-1.330;2023-11-18T01:19:03;6.57;;;2.67;;
48795;SDS011;34607;48.520;-1.330;2023-11-18T01:21:34;5.97;;;3.17;;
48795;SDS011;34607;48.520;-1.330;2023-11-18T01:24:02;5.00;;;3.08;;
48795;SDS011;34607;48.520;-1.330;2023-11-18T01:26:32;7.40;;;2.90;;
48795;SDS011;34607;48.520;-1.330;2023-11-18T01:28:59;5.22;;;3.13;;
48795;SDS011;34607;48.520;-1.330;2023-11-18T01:31:27;6.82;;;2.67;;
48795;SDS011;34607;48.520;-1.330;2023-11-18T01:33:54;5.60;;;2.20;;
48795;SDS011;34607;48.520;-1.330;2023-11-18T01:36:21;6.05;;;2.83;;
48795;SDS011;34607;48.520;-1.330;2023-11-18T01:38:48;5.57;;;2.60;;
48795;SDS011;34607;48.520;-1.330;2023-11-18T01:41:16;4.88;;;2.90;;
48795;SDS011;34607;48.520;-1.330;2023-11-18T01:43:46;5.22;;;3.10;;
48795;SDS011;34607;48.520;-1.330;2023-11-18T01:46:13;9.93;;;3.60;;
48795;SDS011;34607;48.520;-1.330;2023-11-18T01:48:43;4.32;;;3.15;;
48795;SDS011;34607;48.520;-1.330;2023-11-18T01:51:10;10.85;;;3.42;;
48795;SDS011;34607;48.520;-1.330;2023-11-18T01:53:38;7.13;;;3.10;;
48795;SDS011;34607;48.520;-1.330;2023-11-18T01:56:06;5.13;;;3.40;;
48795;SDS011;34607;48.520;-1.330;2023-11-18T01:58:34;4.88;;;2.63;;
48795;SDS011;34607;48.520;-1.330;2023-11-18T02:01:03;5.93;;;3.50;;
48795;SDS011;34607;48.520;-1.330;2023-11-18T02:03:33;8.57;;;3.70;;
48795;SDS011;34607;48.520;-1.330;2023-11-18T02:05:59;4.82;;;2.47;;
48795;SDS011;34607;48.520;-1.330;2023-11-18T02:08:27;4.53;;;2.95;;
48795;SDS011;34607;48.520;-1.330;2023-11-18T02:10:56;6.75;;;3.20;;
48795;SDS011;34607;48.520;-1.330;2023-11-18T02:13:37;7.63;;;3.33;;
48795;SDS011;34607;48.520;-1.330;2023-11-18T02:16:08;4.70;;;3.50;;
48795;SDS011;34607;48.520;-1.330;2023-11-18T02:18:36;7.60;;;3.40;;
48795;SDS011;34607;48.520;-1.330;2023-11-18T02:21:06;6.78;;;3.80;;
48795;SDS011;34607;48.520;-1.330;2023-11-18T02:23:34;8.02;;;3.97;;
48795;SDS011;34607;48.520;-1.330;2023-11-18T02:26:04;8.32;;;4.63;;
48795;SDS011;34607;48.520;-1.330;2023-11-18T02:28:31;7.63;;;4.07;;
48795;SDS011;34607;48.520;-1.330;2023-11-18T02:31:01;8.18;;;3.92;;
48795;SDS011;34607;48.520;-1.330;2023-11-18T02:33:33;5.63;;;4.00;;
48795;SDS011;34607;48.520;-1.330;2023-11-18T02:36:08;10.20;;;4.78;;
48795;SDS011;34607;48.520;-1.330;2023-11-18T02:41:12;8.35;;;4.55;;
48795;SDS011;34607;48.520;-1.330;2023-11-18T02:43:39;7.63;;;4.47;;
48795;SDS011;34607;48.520;-1.330;2023-11-18T02:46:10;8.70;;;4.05;;
48795;SDS011;34607;48.520;-1.330;2023-11-18T02:48:39;8.38;;;4.38;;
48795;SDS011;34607;48.520;-1.330;2023-11-18T02:51:07;6.93;;;4.15;;
48795;SDS011;34607;48.520;-1.330;2023-11-18T02:53:37;7.10;;;4.25;;
48795;SDS011;34607;48.520;-1.330;2023-11-18T02:56:07;9.13;;;4.60;;
48795;SDS011;34607;48.520;-1.330;2023-11-18T02:58:36;8.02;;;4.55;;
48795;SDS011;34607;48.520;-1.330;2023-11-18T03:01:03;6.03;;;3.92;;
48795;SDS011;34607;48.520;-1.330;2023-11-18T03:03:31;5.90;;;3.65;;
48795;SDS011;34607;48.520;-1.330;2023-11-18T03:05:58;6.57;;;4.38;;
48795;SDS011;34607;48.520;-1.330;2023-11-18T03:08:25;5.97;;;4.60;;
48795;SDS011;34607;48.520;-1.330;2023-11-18T03:10:55;5.20;;;3.63;;
48795;SDS011;34607;48.520;-1.330;2023-11-18T03:13:23;10.95;;;4.45;;
48795;SDS011;34607;48.520;-1.330;2023-11-18T03:15:52;5.63;;;4.47;;
48795;SDS011;34607;48.520;-1.330;2023-11-18T03:18:19;7.28;;;4.53;;
48795;SDS011;34607;48.520;-1.330;2023-11-18T03:20:46;11.82;;;5.68;;
48795;SDS011;34607;48.520;-1.330;2023-11-18T03:23:14;11.93;;;5.50;;
48795;SDS011;34607;48.520;-1.330;2023-11-18T03:25:41;8.65;;;5.05;;
48795;SDS011;34607;48.520;-1.330;2023-11-18T03:28:08;10.10;;;5.10;;
48795;SDS011;34607;48.520;-1.330;2023-11-18T03:30:35;9.02;;;5.35;;
48795;SDS011;34607;48.520;-1.330;2023-11-18T03:33:04;6.22;;;5.45;;
48795;SDS011;34607;48.520;-1.330;2023-11-18T03:35:36;7.97;;;4.97;;
48795;SDS011;34607;48.520;-1.330;2023-11-18T03:38:03;10.90;;;5.68;;
48795;SDS011;34607;48.520;-1.330;2023-11-18T03:40:31;14.00;;;5.50;;
48795;SDS011;34607;48.520;-1.330;2023-11-18T03:43:00;8.43;;;5.82;;
48795;SDS011;34607;48.520;-1.330;2023-11-18T03:45:28;8.48;;;5.45;;
48795;SDS011;34607;48.520;-1.330;2023-11-18T03:47:55;8.00;;;6.10;;
48795;SDS011;34607;48.520;-1.330;2023-11-18T03:50:24;7.43;;;5.25;;
48795;SDS011;34607;48.520;-1.330;2023-11-18T03:52:51;7.60;;;5.15;;
48795;SDS011;34607;48.520;-1.330;2023-11-18T03:55:18;8.70;;;5.07;;
48795;SDS011;34607;48.520;-1.330;2023-11-18T03:57:45;9.68;;;4.88;;
48795;SDS011;34607;48.520;-1.330;2023-11-18T04:00:15;5.88;;;4.88;;
48795;SDS011;34607;48.520;-1.330;2023-11-18T04:02:42;8.55;;;4.72;;
48795;SDS011;34607;48.520;-1.330;2023-11-18T04:05:11;8.57;;;5.18;;
48795;SDS011;34607;48.520;-1.330;2023-11-18T04:07:39;8.45;;;5.22;;
48795;SDS011;34607;48.520;-1.330;2023-11-18T04:10:07;5.70;;;4.55;;
48795;SDS011;34607;48.520;-1.330;2023-11-18T04:12:35;6.07;;;5.00;;
48795;SDS011;34607;48.520;-1.330;2023-11-18T04:15:03;9.43;;;5.00;;
48795;SDS011;34607;48.520;-1.330;2023-11-18T04:17:31;8.40;;;5.35;;
48795;SDS011;34607;48.520;-1.330;2023-11-18T04:19:59;6.57;;;4.63;;
48795;SDS011;34607;48.520;-1.330;2023-11-18T04:22:26;9.43;;;5.50;;
48795;SDS011;34607;48.520;-1.330;2023-11-18T04:24:54;8.73;;;5.57;;
48795;SDS011;34607;48.520;-1.330;2023-11-18T04:27:21;7.75;;;5.60;;
48795;SDS011;34607;48.520;-1.330;2023-11-18T04:29:48;10.68;;;5.35;;
48795;SDS011;34607;48.520;-1.330;2023-11-18T04:32:16;10.30;;;5.15;;
48795;SDS011;34607;48.520;-1.330;2023-11-18T04:34:43;8.15;;;4.97;;
48795;SDS011;34607;48.520;-1.330;2023-11-18T04:37:10;7.63;;;5.05;;
48795;SDS011;34607;48.520;-1.330;2023-11-18T04:39:37;16.13;;;4.95;;
48795;SDS011;34607;48.520;-1.330;2023-11-18T04:42:05;6.30;;;4.53;;
48795;SDS011;34607;48.520;-1.330;2023-11-18T04:44:33;12.93;;;5.22;;
48795;SDS011;34607;48.520;-1.330;2023-11-18T04:46:59;9.48;;;4.78;;
48795;SDS011;34607;48.520;-1.330;2023-11-18T04:49:27;6.50;;;4.35;;
48795;SDS011;34607;48.520;-1.330;2023-11-18T04:51:55;6.70;;;4.10;;
48795;SDS011;34607;48.520;-1.330;2023-11-18T04:54:22;10.48;;;4.95;;
48795;SDS011;34607;48.520;-1.330;2023-11-18T04:56:49;8.43;;;3.90;;
48795;SDS011;34607;48.520;-1.330;2023-11-18T04:59:18;9.40;;;4.57;;
48795;SDS011;34607;48.520;-1.330;2023-11-18T05:01:45;10.43;;;4.35;;
48795;SDS011;34607;48.520;-1.330;2023-11-18T05:04:12;12.80;;;4.05;;
48795;SDS011;34607;48.520;-1.330;2023-11-18T05:06:39;6.32;;;4.00;;
48795;SDS011;34607;48.520;-1.330;2023-11-18T05:09:06;7.78;;;3.80;;
48795;SDS011;34607;48.520;-1.330;2023-11-18T05:11:33;8.95;;;3.50;;
48795;SDS011;34607;48.520;-1.330;2023-11-18T05:14:01;6.75;;;3.08;;
48795;SDS011;34607;48.520;-1.330;2023-11-18T05:16:30;9.20;;;3.22;;
48795;SDS011;34607;48.520;-1.330;2023-11-18T05:18:57;6.22;;;3.20;;
48795;SDS011;34607;48.520;-1.330;2023-11-18T05:21:24;9.13;;;2.88;;
48795;SDS011;34607;48.520;-1.330;2023-11-18T05:23:51;9.68;;;3.85;;
48795;SDS011;34607;48.520;-1.330;2023-11-18T05:26:18;10.00;;;3.70;;
48795;SDS011;34607;48.520;-1.330;2023-11-18T05:28:45;8.63;;;3.45;;
48795;SDS011;34607;48.520;-1.330;2023-11-18T05:31:14;10.38;;;3.22;;
48795;SDS011;34607;48.520;-1.330;2023-11-18T05:33:43;8.88;;;3.03;;
48795;SDS011;34607;48.520;-1.330;2023-11-18T05:36:17;8.80;;;3.00;;
48795;SDS011;34607;48.520;-1.330;2023-11-18T05:38:52;10.90;;;3.22;;
48795;SDS011;34607;48.520;-1.330;2023-11-18T05:41:19;9.68;;;2.67;;
48795;SDS011;34607;48.520;-1.330;2023-11-18T05:43:53;7.35;;;3.22;;
48795;SDS011;34607;48.520;-1.330;2023-11-18T05:46:22;8.50;;;3.35;;
48795;SDS011;34607;48.520;-1.330;2023-11-18T05:48:52;8.95;;;3.70;;
48795;SDS011;34607;48.520;-1.330;2023-11-18T05:51:20;10.65;;;3.03;;
48795;SDS011;34607;48.520;-1.330;2023-11-18T05:53:48;10.07;;;3.85;;
48795;SDS011;34607;48.520;-1.330;2023-11-18T05:56:16;7.35;;;3.03;;
48795;SDS011;34607;48.520;-1.330;2023-11-18T05:58:43;6.93;;;3.00;;
48795;SDS011;34607;48.520;-1.330;2023-11-18T06:01:11;9.80;;;3.20;;
48795;SDS011;34607;48.520;-1.330;2023-11-18T06:03:38;9.13;;;3.15;;
48795;SDS011;34607;48.520;-1.330;2023-11-18T06:06:08;7.15;;;3.13;;
48795;SDS011;34607;48.520;-1.330;2023-11-18T06:08:36;5.95;;;3.10;;
48795;SDS011;34607;48.520;-1.330;2023-11-18T06:11:06;9.77;;;2.80;;
48795;SDS011;34607;48.520;-1.330;2023-11-18T06:13:38;9.68;;;3.42;;
48795;SDS011;34607;48.520;-1.330;2023-11-18T06:16:08;8.77;;;2.28;;
48795;SDS011;34607;48.520;-1.330;2023-11-18T06:18:39;9.48;;;2.90;;
48795;SDS011;34607;48.520;-1.330;2023-11-18T06:21:11;12.95;;;2.90;;
48795;SDS011;34607;48.520;-1.330;2023-11-18T06:23:40;7.25;;;2.60;;
48795;SDS011;34607;48.520;-1.330;2023-11-18T06:26:07;6.85;;;2.67;;
48795;SDS011;34607;48.520;-1.330;2023-11-18T06:28:35;13.15;;;2.72;;
48795;SDS011;34607;48.520;-1.330;2023-11-18T06:31:04;7.97;;;2.10;;
48795;SDS011;34607;48.520;-1.330;2023-11-18T06:33:36;7.90;;;2.13;;
48795;SDS011;34607;48.520;-1.330;2023-11-18T06:36:06;7.53;;;2.22;;
48795;SDS011;34607;48.520;-1.330;2023-11-18T06:38:35;6.22;;;2.03;;
48795;SDS011;34607;48.520;-1.330;2023-11-18T06:41:02;8.30;;;2.20;;
48795;SDS011;34607;48.520;-1.330;2023-11-18T06:43:30;6.28;;;2.10;;
48795;SDS011;34607;48.520;-1.330;2023-11-18T06:46:11;5.95;;;2.38;;
48795;SDS011;34607;48.520;-1.330;2023-11-18T06:48:39;13.07;;;2.97;;
48795;SDS011;34607;48.520;-1.330;2023-11-18T06:51:07;8.43;;;2.25;;
48795;SDS011;34607;48.520;-1.330;2023-11-18T06:53:35;8.15;;;2.50;;
48795;SDS011;34607;48.520;-1.330;2023-11-18T06:56:03;10.82;;;2.10;;
48795;SDS011;34607;48.520;-1.330;2023-11-18T06:58:30;5.38;;;2.00;;
48795;SDS011;34607;48.520;-1.330;2023-11-18T07:00:57;10.00;;;2.58;;
48795;SDS011;34607;48.520;-1.330;2023-11-18T07:03:24;7.90;;;2.58;;
48795;SDS011;34607;48.520;-1.330;2023-11-18T07:05:51;7.22;;;2.60;;
48795;SDS011;34607;48.520;-1.330;2023-11-18T07:08:19;10.75;;;2.72;;
48795;SDS011;34607;48.520;-1.330;2023-11-18T07:10:47;8.23;;;2.75;;
48795;SDS011;34607;48.520;-1.330;2023-11-18T07:13:14;6.00;;;2.30;;
48795;SDS011;34607;48.520;-1.330;2023-11-18T07:15:41;8.90;;;2.60;;
48795;SDS011;34607;48.520;-1.330;2023-11-18T07:18:10;9.13;;;2.30;;
48795;SDS011;34607;48.520;-1.330;2023-11-18T07:20:37;8.20;;;2.22;;
48795;SDS011;34607;48.520;-1.330;2023-11-18T07:23:04;8.85;;;3.20;;
48795;SDS011;34607;48.520;-1.330;2023-11-18T07:25:34;7.72;;;2.17;;
48795;SDS011;34607;48.520;-1.330;2023-11-18T07:28:02;7.18;;;2.17;;
48795;SDS011;34607;48.520;-1.330;2023-11-18T07:30:30;6.20;;;2.15;;
48795;SDS011;34607;48.520;-1.330;2023-11-18T07:32:57;7.13;;;1.95;;
48795;SDS011;34607;48.520;-1.330;2023-11-18T07:35:26;9.02;;;1.98;;
48795;SDS011;34607;48.520;-1.330;2023-11-18T07:37:55;4.28;;;1.70;;
48795;SDS011;34607;48.520;-1.330;2023-11-18T07:40:22;4.50;;;2.05;;
48795;SDS011;34607;48.520;-1.330;2023-11-18T07:42:53;8.23;;;2.08;;
48795;SDS011;34607;48.520;-1.330;2023-11-18T07:45:22;7.07;;;2.40;;
48795;SDS011;34607;48.520;-1.330;2023-11-18T07:47:49;2.05;;;1.35;;
48795;SDS011;34607;48.520;-1.330;2023-11-18T07:50:17;5.28;;;1.70;;
48795;SDS011;34607;48.520;-1.330;2023-11-18T07:52:45;7.25;;;1.90;;
48795;SDS011;34607;48.520;-1.330;2023-11-18T07:55:12;5.95;;;1.80;;
48795;SDS011;34607;48.520;-1.330;2023-11-18T07:57:39;4.50;;;1.98;;
48795;SDS011;34607;48.520;-1.330;2023-11-18T08:00:08;5.15;;;2.10;;
48795;SDS011;34607;48.520;-1.330;2023-11-18T08:02:42;6.20;;;2.83;;
48795;SDS011;34607;48.520;-1.330;2023-11-18T08:05:11;7.60;;;2.47;;
48795;SDS011;34607;48.520;-1.330;2023-11-18T08:07:40;4.70;;;2.10;;
48795;SDS011;34607;48.520;-1.330;2023-11-18T08:10:09;5.43;;;2.17;;
48795;SDS011;34607;48.520;-1.330;2023-11-18T08:12:38;5.60;;;2.35;;
48795;SDS011;34607;48.520;-1.330;2023-11-18T08:15:06;6.82;;;2.42;;
48795;SDS011;34607;48.520;-1.330;2023-11-18T08:17:34;4.97;;;2.30;;
48795;SDS011;34607;48.520;-1.330;2023-11-18T08:20:03;5.53;;;2.80;;
48795;SDS011;34607;48.520;-1.330;2023-11-18T08:22:39;6.18;;;2.67;;
48795;SDS011;34607;48.520;-1.330;2023-11-18T08:25:07;3.70;;;2.75;;
48795;SDS011;34607;48.520;-1.330;2023-11-18T08:27:34;5.25;;;2.38;;
48795;SDS011;34607;48.520;-1.330;2023-11-18T08:30:02;9.43;;;2.65;;
48795;SDS011;34607;48.520;-1.330;2023-11-18T08:32:31;5.93;;;3.10;;
48795;SDS011;34607;48.520;-1.330;2023-11-18T08:34:58;9.10;;;3.30;;
48795;SDS011;34607;48.520;-1.330;2023-11-18T08:37:26;9.05;;;3.35;;
48795;SDS011;34607;48.520;-1.330;2023-11-18T08:39:54;9.77;;;3.45;;
48795;SDS011;34607;48.520;-1.330;2023-11-18T08:42:21;4.85;;;2.40;;
48795;SDS011;34607;48.520;-1.330;2023-11-18T08:44:49;5.63;;;2.70;;
48795;SDS011;34607;48.520;-1.330;2023-11-18T08:47:16;6.22;;;2.97;;
48795;SDS011;34607;48.520;-1.330;2023-11-18T08:49:44;6.53;;;2.77;;
48795;SDS011;34607;48.520;-1.330;2023-11-18T08:52:12;8.32;;;3.22;;
48795;SDS011;34607;48.520;-1.330;2023-11-18T08:54:40;9.82;;;3.10;;
48795;SDS011;34607;48.520;-1.330;2023-11-18T08:57:27;8.05;;;3.33;;
48795;SDS011;34607;48.520;-1.330;2023-11-18T09:00:14;9.75;;;3.40;;
48795;SDS011;34607;48.520;-1.330;2023-11-18T09:03:03;6.13;;;3.45;;
48795;SDS011;34607;48.520;-1.330;2023-11-18T09:05:31;5.30;;;3.58;;
48795;SDS011;34607;48.520;-1.330;2023-11-18T09:08:01;8.50;;;3.75;;
48795;SDS011;34607;48.520;-1.330;2023-11-18T09:10:32;8.32;;;3.60;;
48795;SDS011;34607;48.520;-1.330;2023-11-18T09:12:59;9.25;;;4.15;;
48795;SDS011;34607;48.520;-1.330;2023-11-18T09:15:29;7.03;;;3.47;;
48795;SDS011;34607;48.520;-1.330;2023-11-18T09:17:56;8.40;;;3.70;;
48795;SDS011;34607;48.520;-1.330;2023-11-18T09:20:23;10.27;;;4.07;;
48795;SDS011;34607;48.520;-1.330;2023-11-18T09:22:50;8.43;;;3.75;;
48795;SDS011;34607;48.520;-1.330;2023-11-18T09:25:21;6.95;;;3.38;;
48795;SDS011;34607;48.520;-1.330;2023-11-18T09:27:50;6.75;;;4.35;;
48795;SDS011;34607;48.520;-1.330;2023-11-18T09:30:17;8.82;;;3.80;;
48795;SDS011;34607;48.520;-1.330;2023-11-18T09:32:44;5.57;;;3.38;;
48795;SDS011;34607;48.520;-1.330;2023-11-18T09:35:13;4.32;;;3.50;;
48795;SDS011;34607;48.520;-1.330;2023-11-18T09:37:40;11.77;;;3.95;;
48795;SDS011;34607;48.520;-1.330;2023-11-18T09:40:08;6.18;;;3.50;;
48795;SDS011;34607;48.520;-1.330;2023-11-18T09:42:39;6.47;;;3.83;;
48795;SDS011;34607;48.520;-1.330;2023-11-18T09:45:10;7.20;;;3.47;;
48795;SDS011;34607;48.520;-1.330;2023-11-18T09:47:41;5.88;;;3.70;;
48795;SDS011;34607;48.520;-1.330;2023-11-18T09:50:12;7.18;;;3.80;;
48795;SDS011;34607;48.520;-1.330;2023-11-18T09:52:47;9.38;;;3.10;;
48795;SDS011;34607;48.520;-1.330;2023-11-18T09:55:21;5.53;;;3.10;;
48795;SDS011;34607;48.520;-1.330;2023-11-18T09:57:55;7.18;;;4.03;;
48795;SDS011;34607;48.520;-1.330;2023-11-18T10:00:30;11.02;;;4.13;;
48795;SDS011;34607;48.520;-1.330;2023-11-18T10:03:00;8.65;;;3.70;;
48795;SDS011;34607;48.520;-1.330;2023-11-18T10:05:33;6.30;;;3.80;;
48795;SDS011;34607;48.520;-1.330;2023-11-18T10:08:02;7.82;;;3.88;;
48795;SDS011;34607;48.520;-1.330;2023-11-18T10:10:31;9.55;;;3.90;;
48795;SDS011;34607;48.520;-1.330;2023-11-18T10:13:01;10.13;;;4.60;;
48795;SDS011;34607;48.520;-1.330;2023-11-18T10:15:35;10.65;;;4.13;;
48795;SDS011;34607;48.520;-1.330;2023-11-18T10:18:02;11.48;;;4.55;;
48795;SDS011;34607;48.520;-1.330;2023-11-18T10:20:45;7.70;;;4.18;;
48795;SDS011;34607;48.520;-1.330;2023-11-18T10:23:13;8.73;;;4.43;;
48795;SDS011;34607;48.520;-1.330;2023-11-18T10:25:46;6.57;;;4.00;;
48795;SDS011;34607;48.520;-1.330;2023-11-18T10:28:26;8.48;;;4.18;;
48795;SDS011;34607;48.520;-1.330;2023-11-18T10:30:56;6.72;;;4.20;;
48795;SDS011;34607;48.520;-1.330;2023-11-18T10:33:24;8.07;;;3.92;;
48795;SDS011;34607;48.520;-1.330;2023-11-18T10:35:56;5.80;;;3.95;;
48795;SDS011;34607;48.520;-1.330;2023-11-18T10:38:23;4.95;;;3.08;;
48795;SDS011;34607;48.520;-1.330;2023-11-18T10:40:55;5.95;;;3.03;;
48795;SDS011;34607;48.520;-1.330;2023-11-18T10:43:23;7.05;;;3.35;;
48795;SDS011;34607;48.520;-1.330;2023-11-18T10:46:03;6.82;;;3.22;;
48795;SDS011;34607;48.520;-1.330;2023-11-18T10:48:37;18.52;;;4.20;;
48795;SDS011;34607;48.520;-1.330;2023-11-18T10:51:07;6.88;;;3.45;;
48795;SDS011;34607;48.520;-1.330;2023-11-18T10:53:37;5.78;;;4.47;;
48795;SDS011;34607;48.520;-1.330;2023-11-18T10:56:04;11.82;;;4.32;;
48795;SDS011;34607;48.520;-1.330;2023-11-18T10:58:35;13.13;;;4.13;;
48795;SDS011;34607;48.520;-1.330;2023-11-18T11:01:07;10.25;;;5.13;;
48795;SDS011;34607;48.520;-1.330;2023-11-18T11:03:43;9.43;;;5.22;;
48795;SDS011;34607;48.520;-1.330;2023-11-18T11:06:21;9.80;;;4.53;;
48795;SDS011;34607;48.520;-1.330;2023-11-18T11:08:49;9.52;;;5.00;;
48795;SDS011;34607;48.520;-1.330;2023-11-18T11:11:17;15.32;;;5.93;;
48795;SDS011;34607;48.520;-1.330;2023-11-18T11:13:47;15.38;;;5.80;;
48795;SDS011;34607;48.520;-1.330;2023-11-18T11:16:19;13.77;;;4.57;;
48795;SDS011;34607;48.520;-1.330;2023-11-18T11:18:50;14.93;;;4.85;;
48795;SDS011;34607;48.520;-1.330;2023-11-18T11:21:22;13.30;;;5.50;;
48795;SDS011;34607;48.520;-1.330;2023-11-18T11:23:54;11.23;;;4.95;;
48795;SDS011;34607;48.520;-1.330;2023-11-18T11:26:34;13.88;;;4.93;;
48795;SDS011;34607;48.520;-1.330;2023-11-18T11:29:11;15.80;;;5.18;;
48795;SDS011;34607;48.520;-1.330;2023-11-18T11:31:55;14.05;;;5.63;;
48795;SDS011;34607;48.520;-1.330;2023-11-18T11:34:37;14.77;;;4.85;;
48795;SDS011;34607;48.520;-1.330;2023-11-18T11:37:07;14.30;;;5.80;;
48795;SDS011;34607;48.520;-1.330;2023-11-18T11:39:37;11.63;;;5.80;;
48795;SDS011;34607;48.520;-1.330;2023-11-18T11:42:12;18.75;;;6.55;;
48795;SDS011;34607;48.520;-1.330;2023-11-18T11:44:43;15.45;;;6.63;;
48795;SDS011;34607;48.520;-1.330;2023-11-18T11:47:12;14.13;;;6.10;;
48795;SDS011;34607;48.520;-1.330;2023-11-18T11:49:43;22.27;;;5.88;;
48795;SDS011;34607;48.520;-1.330;2023-11-18T11:52:18;17.73;;;6.18;;
48795;SDS011;34607;48.520;-1.330;2023-11-18T11:54:55;16.75;;;5.80;;
48795;SDS011;34607;48.520;-1.330;2023-11-18T11:57:27;17.38;;;6.18;;
48795;SDS011;34607;48.520;-1.330;2023-11-18T11:59:55;25.42;;;7.15;;
48795;SDS011;34607;48.520;-1.330;2023-11-18T12:02:25;19.05;;;5.70;;
48795;SDS011;34607;48.520;-1.330;2023-11-18T12:04:55;18.00;;;5.78;;
48795;SDS011;34607;48.520;-1.330;2023-11-18T12:07:24;19.23;;;5.95;;
48795;SDS011;34607;48.520;-1.330;2023-11-18T12:09:56;18.58;;;5.53;;
48795;SDS011;34607;48.520;-1.330;2023-11-18T12:12:25;19.05;;;6.70;;
48795;SDS011;34607;48.520;-1.330;2023-11-18T12:14:53;15.18;;;5.43;;
48795;SDS011;34607;48.520;-1.330;2023-11-18T12:17:24;18.95;;;6.43;;
48795;SDS011;34607;48.520;-1.330;2023-11-18T12:19:57;17.90;;;6.13;;
48795;SDS011;34607;48.520;-1.330;2023-11-18T12:22:25;15.25;;;5.25;;
48795;SDS011;34607;48.520;-1.330;2023-11-18T12:28:11;16.25;;;5.32;;
48795;SDS011;34607;48.520;-1.330;2023-11-18T12:30:41;22.65;;;5.75;;
48795;SDS011;34607;48.520;-1.330;2023-11-18T12:33:22;16.50;;;5.30;;
48795;SDS011;34607;48.520;-1.330;2023-11-18T12:36:03;20.88;;;6.05;;
48795;SDS011;34607;48.520;-1.330;2023-11-18T12:39:00;22.73;;;5.68;;
48795;SDS011;34607;48.520;-1.330;2023-11-18T12:41:42;14.25;;;5.15;;
48795;SDS011;34607;48.520;-1.330;2023-11-18T12:44:16;17.95;;;6.13;;
48795;SDS011;34607;48.520;-1.330;2023-11-18T12:46:58;18.10;;;6.22;;
48795;SDS011;34607;48.520;-1.330;2023-11-18T12:49:41;13.02;;;4.32;;
48795;SDS011;34607;48.520;-1.330;2023-11-18T12:52:08;21.88;;;5.70;;
48795;SDS011;34607;48.520;-1.330;2023-11-18T12:54:40;15.90;;;5.80;;
48795;SDS011;34607;48.520;-1.330;2023-11-18T12:57:09;16.00;;;5.45;;
48795;SDS011;34607;48.520;-1.330;2023-11-18T12:59:39;19.48;;;5.15;;
48795;SDS011;34607;48.520;-1.330;2023-11-18T13:02:07;13.02;;;4.85;;
48795;SDS011;34607;48.520;-1.330;2023-11-18T13:04:38;17.30;;;6.03;;
48795;SDS011;34607;48.520;-1.330;2023-11-18T13:07:07;20.25;;;5.75;;
48795;SDS011;34607;48.520;-1.330;2023-11-18T13:09:36;22.58;;;6.18;;
48795;SDS011;34607;48.520;-1.330;2023-11-18T13:12:06;21.02;;;5.30;;
48795;SDS011;34607;48.520;-1.330;2023-11-18T13:14:34;14.77;;;5.85;;
48795;SDS011;34607;48.520;-1.330;2023-11-18T13:17:02;22.15;;;5.18;;
48795;SDS011;34607;48.520;-1.330;2023-11-18T13:19:31;17.48;;;5.05;;
48795;SDS011;34607;48.520;-1.330;2023-11-18T13:22:01;18.13;;;5.05;;
48795;SDS011;34607;48.520;-1.330;2023-11-18T13:24:29;15.40;;;5.15;;
48795;SDS011;34607;48.520;-1.330;2023-11-18T13:26:57;17.75;;;4.68;;
48795;SDS011;34607;48.520;-1.330;2023-11-18T13:29:29;13.07;;;4.78;;
48795;SDS011;34607;48.520;-1.330;2023-11-18T13:31:56;18.45;;;5.18;;
48795;SDS011;34607;48.520;-1.330;2023-11-18T13:34:25;22.23;;;5.88;;
48795;SDS011;34607;48.520;-1.330;2023-11-18T13:36:55;17.00;;;4.55;;
48795;SDS011;34607;48.520;-1.330;2023-11-18T13:39:24;16.00;;;4.88;;
48795;SDS011;34607;48.520;-1.330;2023-11-18T13:41:53;27.83;;;5.68;;
48795;SDS011;34607;48.520;-1.330;2023-11-18T13:44:32;16.58;;;5.95;;
48795;SDS011;34607;48.520;-1.330;2023-11-18T13:47:00;22.50;;;5.07;;
48795;SDS011;34607;48.520;-1.330;2023-11-18T13:49:30;16.35;;;4.93;;
48795;SDS011;34607;48.520;-1.330;2023-11-18T13:51:57;22.33;;;4.88;;
48795;SDS011;34607;48.520;-1.330;2023-11-18T13:54:27;16.10;;;5.72;;
48795;SDS011;34607;48.520;-1.330;2023-11-18T13:56:54;16.63;;;4.72;;
48795;SDS011;34607;48.520;-1.330;2023-11-18T13:59:24;23.98;;;6.75;;
48795;SDS011;34607;48.520;-1.330;2023-11-18T14:01:52;18.83;;;6.32;;
48795;SDS011;34607;48.520;-1.330;2023-11-18T14:04:22;14.60;;;5.07;;
48795;SDS011;34607;48.520;-1.330;2023-11-18T14:06:50;16.13;;;5.57;;
48795;SDS011;34607;48.520;-1.330;2023-11-18T14:09:19;15.60;;;5.05;;
48795;SDS011;34607;48.520;-1.330;2023-11-18T14:11:48;19.80;;;5.32;;
48795;SDS011;34607;48.520;-1.330;2023-11-18T14:14:15;17.90;;;4.72;;
48795;SDS011;34607;48.520;-1.330;2023-11-18T14:16:43;10.85;;;4.30;;
48795;SDS011;34607;48.520;-1.330;2023-11-18T14:19:10;14.45;;;4.78;;
48795;SDS011;34607;48.520;-1.330;2023-11-18T14:21:38;15.55;;;4.35;;
48795;SDS011;34607;48.520;-1.330;2023-11-18T14:24:06;13.13;;;3.53;;
48795;SDS011;34607;48.520;-1.330;2023-11-18T14:26:35;12.70;;;4.03;;
48795;SDS011;34607;48.520;-1.330;2023-11-18T14:29:04;10.00;;;3.72;;
48795;SDS011;34607;48.520;-1.330;2023-11-18T14:31:32;11.30;;;4.18;;
48795;SDS011;34607;48.520;-1.330;2023-11-18T14:33:59;16.83;;;4.32;;
48795;SDS011;34607;48.520;-1.330;2023-11-18T14:36:26;14.93;;;4.03;;
48795;SDS011;34607;48.520;-1.330;2023-11-18T14:38:54;14.05;;;3.72;;
48795;SDS011;34607;48.520;-1.330;2023-11-18T14:41:21;15.30;;;4.28;;
48795;SDS011;34607;48.520;-1.330;2023-11-18T14:43:51;12.77;;;3.67;;
48795;SDS011;34607;48.520;-1.330;2023-11-18T14:46:19;10.43;;;3.75;;
48795;SDS011;34607;48.520;-1.330;2023-11-18T14:48:46;10.27;;;4.00;;